createdAt,value
2023-03-23T15:59:56.182Z,99901.34
2023-03-23T16:03:08.030Z,99902.34
2023-03-23T16:06:25.039Z,99912.94
2023-03-23T16:09:28.244Z,99902.37
2023-03-23T16:12:31.111Z,99910.44
2023-03-23T16:15:34.053Z,99915.81
2023-03-23T16:18:37.614Z,99915.88
2023-03-23T16:21:41.128Z,99910.66
2023-03-23T16:24:43.955Z,99919.47
2023-03-23T16:27:52.246Z,99912.53
2023-03-23T16:30:56.367Z,99907.28
2023-03-23T16:33:59.242Z,99914.47
2023-03-23T16:37:02.044Z,99910.97
2023-03-23T16:40:07.157Z,99924.22
2023-03-23T16:43:10.840Z,99930.44
2023-03-23T16:46:14.332Z,99919.88
2023-03-23T16:49:17.359Z,99918.16
2023-03-23T16:52:20.557Z,99926.09
2023-03-23T16:55:26.198Z,99923.47
2023-03-23T16:58:29.174Z,99928.75
2023-03-23T17:01:32.099Z,99923.47
2023-03-23T17:04:34.882Z,99931.44
2023-03-23T17:07:39.160Z,99936.72
2023-03-23T17:10:43.789Z,99942.00
2023-03-23T17:13:46.619Z,99935.84
2023-03-23T17:16:49.390Z,99942.91
2023-03-23T17:19:52.494Z,99943.81
2023-03-23T17:22:55.384Z,99946.44
2023-03-23T17:25:58.439Z,99944.69
2023-03-23T17:29:01.171Z,99948.22
2023-03-23T17:32:06.000Z,99940.28
2023-03-23T17:35:13.941Z,99945.56
2023-03-23T17:38:17.843Z,99951.72
2023-03-23T17:41:23.461Z,99953.47
2023-03-23T17:44:26.719Z,99958.72
2023-03-23T17:47:30.612Z,99968.38
2023-03-23T17:50:34.965Z,99964.84
2023-03-23T17:53:38.111Z,99962.19
2023-03-23T17:56:41.434Z,99966.59
2023-03-23T17:59:47.086Z,99971.88
2023-03-23T18:02:50.398Z,99971.88
2023-03-23T18:06:11.918Z,99978.87
2023-03-23T18:09:22.877Z,99969.16
2023-03-23T18:12:26.169Z,99976.16
2023-03-23T18:15:29.676Z,99982.28
2023-03-23T18:18:39.577Z,99990.19
2023-03-23T18:21:45.968Z,99998.91
2023-03-23T18:24:58.623Z,99991.88
2023-03-23T18:28:05.602Z,99997.09
2023-03-23T18:31:13.925Z,100003.28
2023-03-23T18:34:16.505Z,100003.25
2023-03-23T18:37:20.545Z,100002.31
2023-03-23T18:40:25.326Z,100005.09
2023-03-23T18:43:28.572Z,99995.41
2023-03-23T18:46:33.020Z,100010.31
2023-03-23T18:49:46.365Z,100010.19
2023-03-23T18:52:49.060Z,100006.56
2023-03-23T18:55:52.829Z,100000.44
2023-03-23T18:58:55.504Z,100001.22
2023-03-23T19:01:59.857Z,100009.94
2023-03-23T19:05:02.720Z,100001.09
2023-03-23T19:08:08.298Z,99998.41
2023-03-23T19:11:10.993Z,100007.13
2023-03-23T19:14:14.549Z,100007.97
2023-03-23T19:17:17.626Z,100008.03
2023-03-23T19:20:37.484Z,100004.59
2023-03-23T19:23:43.390Z,100000.97
2023-03-23T19:26:47.968Z,99993.84
2023-03-23T19:29:50.705Z,99996.41
2023-03-23T19:32:54.258Z,99992.84
2023-03-23T19:36:07.351Z,100000.69
2023-03-23T19:39:14.829Z,99998.09
2023-03-23T19:42:18.564Z,100005.91
2023-03-23T19:45:21.688Z,100006.69
2023-03-23T19:48:24.545Z,100011.06
2023-03-23T19:51:28.553Z,100016.25
2023-03-23T19:54:31.798Z,100022.34
2023-03-23T19:57:35.238Z,100025.81
2023-03-23T20:00:38.168Z,100026.75
2023-03-23T20:03:42.252Z,100032.75
2023-03-23T20:06:45.935Z,100026.50
2023-03-23T20:09:49.766Z,100029.09
2023-03-23T20:12:52.214Z,100026.38
2023-03-23T20:15:58.103Z,100030.81
2023-03-23T20:19:04.433Z,100030.81
2023-03-23T20:22:11.270Z,100025.81
2023-03-23T20:25:17.517Z,100038.03
2023-03-23T20:28:20.670Z,100028.41
2023-03-23T20:31:30.351Z,100030.78
2023-03-23T20:34:34.164Z,100031.66
2023-03-23T20:37:41.089Z,100036.87
2023-03-23T20:40:45.340Z,100037.66
2023-03-23T20:43:48.105Z,100035.75
2023-03-23T20:46:52.283Z,100038.25
2023-03-23T20:49:55.937Z,100038.31
2023-03-23T20:52:59.097Z,100035.56
2023-03-23T20:56:05.520Z,100043.47
2023-03-23T20:59:09.937Z,100040.00
2023-03-23T21:02:18.182Z,100034.88
2023-03-23T21:05:21.518Z,100030.63
2023-03-23T21:08:24.712Z,100025.41
2023-03-23T21:11:28.123Z,100029.56
2023-03-23T21:14:30.697Z,100020.03
2023-03-23T21:17:33.917Z,100026.09
2023-03-23T21:20:37.775Z,100025.19
2023-03-23T21:23:46.456Z,100027.97
2023-03-23T21:26:49.169Z,100019.28
2023-03-23T21:29:57.020Z,100012.97
2023-03-23T21:32:59.588Z,100011.25
2023-03-23T21:36:03.800Z,100017.25
2023-03-23T21:39:06.371Z,100020.56
2023-03-23T21:42:09.432Z,100026.50
2023-03-23T21:45:14.026Z,100023.94
2023-03-23T21:48:17.141Z,100032.72
2023-03-23T21:51:24.779Z,100036.28
2023-03-23T21:54:31.629Z,100029.34
2023-03-23T21:57:34.404Z,100038.19
2023-03-23T22:00:37.395Z,100031.00
2023-03-23T22:03:41.131Z,100030.22
2023-03-23T22:06:44.626Z,100025.75
2023-03-23T22:09:47.611Z,100015.97
2023-03-23T22:12:53.684Z,100016.63
2023-03-23T22:15:59.646Z,100026.06
2023-03-23T22:19:02.533Z,100020.94
2023-03-23T22:22:05.963Z,100020.78
2023-03-23T22:25:08.922Z,100020.88
2023-03-23T22:28:11.843Z,100022.69
2023-03-23T22:31:18.763Z,100029.53
2023-03-23T22:34:21.926Z,100029.41
2023-03-23T22:37:24.799Z,100031.06
2023-03-23T22:40:27.600Z,100036.47
2023-03-23T22:43:31.072Z,100035.16
2023-03-23T22:46:34.292Z,100022.88
2023-03-23T22:49:37.371Z,100029.63
2023-03-23T22:52:40.718Z,100036.50
2023-03-23T22:55:44.990Z,100038.22
2023-03-23T22:58:47.979Z,100041.75
2023-03-23T23:01:50.936Z,100033.81
2023-03-23T23:04:54.653Z,100039.88
2023-03-23T23:07:57.614Z,100045.13
2023-03-23T23:11:02.636Z,100044.28
2023-03-23T23:14:05.572Z,100046.06
2023-03-23T23:17:08.694Z,100048.69
2023-03-23T23:20:14.428Z,100046.91
2023-03-23T23:23:17.485Z,100039.84
2023-03-23T23:26:20.582Z,100038.97
2023-03-23T23:29:23.572Z,100045.91
2023-03-23T23:32:29.121Z,100047.59
2023-03-23T23:35:32.183Z,100043.16
2023-03-23T23:38:36.068Z,100045.88
2023-03-23T23:41:39.286Z,100037.13
2023-03-23T23:44:43.320Z,100043.19
2023-03-23T23:47:47.072Z,100043.06
2023-03-23T23:50:51.422Z,100032.56
2023-03-23T23:53:58.921Z,100036.84
2023-03-23T23:57:02.552Z,100033.31
